Time;durP1;ratioP1;P1;durP2;ratioP2;P2;SDS_P1;SDS_P2;PMS_P1;PMS_P2;Temp;Humidity;BMP_temperature;BMP_pressure;BME280_temperature;BME280_humidity;BME280_pressure;Samples;Min_cycle;Max_cycle;Signal;HPM_P1;HPM_P2
2022/04/05 00:03:14;;;;;;;2.92;2.72;;;5.00;99.90;;;;;;5055301;28;20044;-90
2022/04/05 00:05:39;;;;;;;2.08;1.98;;;5.00;99.90;;;;;;5055156;28;20384;-89
2022/04/05 00:08:11;;;;;;;2.65;2.45;;;5.00;99.90;;;;;;5055413;28;20099;-92
2022/04/05 00:10:37;;;;;;;2.60;2.30;;;5.00;99.90;;;;;;5037055;28;20078;-91
2022/04/05 00:13:06;;;;;;;2.63;2.20;;;4.90;99.90;;;;;;5038447;28;20477;-92
2022/04/05 00:15:56;;;;;;;2.67;2.47;;;5.00;99.90;;;;;;5037944;28;20029;-90
2022/04/05 00:18:22;;;;;;;2.65;2.45;;;5.00;99.90;;;;;;5038107;28;20062;-90
2022/04/05 00:20:47;;;;;;;2.22;2.10;;;5.00;99.90;;;;;;5055677;28;20085;-91
2022/04/05 00:23:28;;;;;;;2.28;2.08;;;5.00;99.90;;;;;;5055597;28;20020;-92
2022/04/05 00:25:54;;;;;;;2.25;2.15;;;5.00;99.90;;;;;;5037469;28;20036;-92
2022/04/05 00:28:20;;;;;;;2.15;2.05;;;5.10;99.90;;;;;;5055594;28;20025;-89
2022/04/05 00:34:07;;;;;;;2.30;2.10;;;5.20;99.90;;;;;;5055132;28;20052;-90
2022/04/05 00:39:55;;;;;;;2.38;2.17;;;5.20;99.90;;;;;;5055140;28;20024;-92
2022/04/05 00:43:05;;;;;;;1.70;1.60;;;5.10;99.90;;;;;;5054284;28;20017;-91
2022/04/05 00:45:34;;;;;;;1.90;1.80;;;5.10;99.90;;;;;;5064835;28;20032;-90
2022/04/05 00:48:00;;;;;;;2.08;1.98;;;5.10;99.90;;;;;;5057025;28;20376;-91
2022/04/05 00:50:44;;;;;;;2.42;2.22;;;5.10;99.90;;;;;;5075387;28;20024;-92
2022/04/05 00:53:10;;;;;;;2.70;2.15;;;5.10;99.90;;;;;;5058064;28;20035;-93
2022/04/05 00:55:37;;;;;;;2.15;2.05;;;5.10;99.90;;;;;;5057164;28;20028;-90
2022/04/05 01:01:28;;;;;;;2.03;1.92;;;5.10;99.90;;;;;;5074854;28;20426;-94
2022/04/05 01:04:19;;;;;;;2.17;2.00;;;5.10;99.90;;;;;;5057112;28;20029;-93
2022/04/05 01:06:47;;;;;;;2.63;2.33;;;5.10;99.90;;;;;;5056698;28;20360;-90
2022/04/05 01:09:13;;;;;;;2.40;2.20;;;5.10;99.90;;;;;;5056663;28;20060;-89
2022/04/05 01:12:02;;;;;;;1.85;1.75;;;5.10;99.90;;;;;;5056588;28;20059;-93
2022/04/05 01:14:27;;;;;;;2.22;2.03;;;5.10;99.90;;;;;;5056351;28;20056;-89
2022/04/05 01:16:53;;;;;;;2.25;2.05;;;5.10;99.90;;;;;;5074204;28;20491;-89
2022/04/05 01:19:28;;;;;;;2.55;2.35;;;5.10;99.90;;;;;;5055797;28;20020;-91
2022/04/05 01:21:53;;;;;;;3.88;2.00;;;5.10;99.90;;;;;;5074717;28;20020;-91
2022/04/05 01:24:19;;;;;;;2.67;2.25;;;5.10;99.90;;;;;;5074730;28;20423;-94
2022/04/05 01:30:07;;;;;;;2.15;1.98;;;5.10;99.90;;;;;;5074207;28;20032;-93
2022/04/05 01:35:54;;;;;;;1.95;1.85;;;5.10;99.90;;;;;;5076846;28;20027;-93
2022/04/05 01:41:43;;;;;;;1.60;1.50;;;5.10;99.90;;;;;;5077221;28;20051;-91
2022/04/05 01:44:13;;;;;;;2.20;2.00;;;5.10;99.90;;;;;;5054666;28;20057;-93
2022/04/05 01:46:39;;;;;;;1.95;1.85;;;5.10;99.90;;;;;;5057178;28;20086;-93
2022/04/05 01:49:06;;;;;;;1.92;1.83;;;5.10;99.90;;;;;;5057016;28;20025;-90
2022/04/05 01:55:07;;;;;;;1.85;1.75;;;5.10;99.90;;;;;;5073634;28;20082;-89
2022/04/05 01:57:33;;;;;;;1.60;1.50;;;5.10;99.90;;;;;;5055543;28;20392;-89
2022/04/05 01:59:58;;;;;;;2.13;1.90;;;5.10;99.90;;;;;;5054978;28;20021;-88
2022/04/05 02:02:47;;;;;;;1.50;1.40;;;5.10;99.90;;;;;;5072441;28;20025;-88
2022/04/05 02:05:12;;;;;;;1.50;1.40;;;5.10;99.90;;;;;;5054738;28;20657;-86
2022/04/05 02:07:38;;;;;;;4.63;1.50;;;5.10;99.90;;;;;;5072774;28;20028;-88
2022/04/05 02:10:22;;;;;;;1.42;1.33;;;5.10;99.90;;;;;;5073150;28;20391;-88
2022/04/05 02:12:47;;;;;;;1.30;1.25;;;5.10;99.90;;;;;;5036330;28;20040;-89
2022/04/05 02:15:13;;;;;;;1.80;1.67;;;5.10;99.90;;;;;;5073011;28;20427;-89
2022/04/05 02:21:40;;;;;;;1.58;1.48;;;5.20;99.90;;;;;;5072783;28;20384;-90
2022/04/05 02:24:06;;;;;;;1.55;1.45;;;5.20;99.90;;;;;;5054956;28;20373;-91
2022/04/05 02:26:34;;;;;;;1.05;1.05;;;5.20;99.90;;;;;;5072469;28;20027;-91
2022/04/05 02:28:59;;;;;;;2.25;1.02;;;5.20;99.90;;;;;;5072815;28;20020;-89
2022/04/05 02:32:00;;;;;;;1.10;1.10;;;5.20;99.90;;;;;;5050052;28;20360;-89
2022/04/05 02:34:25;;;;;;;1.05;1.05;;;5.20;99.90;;;;;;5056742;28;20041;-89
2022/04/05 02:36:51;;;;;;;1.05;1.05;;;5.30;99.90;;;;;;5048410;28;20024;-90
2022/04/05 02:39:46;;;;;;;1.52;1.00;;;5.20;99.90;;;;;;5058654;28;20082;-90
2022/04/05 02:42:12;;;;;;;1.00;1.00;;;5.30;99.90;;;;;;5059181;28;20032;-90
2022/04/05 02:49:03;;;;;;;0.80;0.80;;;5.20;99.90;;;;;;5076599;28;20044;-92
2022/04/05 02:55:06;;;;;;;1.73;0.98;;;5.30;99.90;;;;;;5056729;28;20519;-90
2022/04/05 02:58:09;;;;;;;1.30;1.20;;;5.30;99.90;;;;;;5057015;28;20044;-91
2022/04/05 03:00:38;;;;;;;1.00;1.00;;;5.20;99.90;;;;;;5056744;28;20476;-92
2022/04/05 03:03:04;;;;;;;1.00;1.00;;;5.30;99.90;;;;;;5055556;28;20051;-92
2022/04/05 03:08:58;;;;;;;1.38;0.90;;;5.30;99.90;;;;;;5056339;28;20109;-90
2022/04/05 03:11:24;;;;;;;0.73;0.73;;;5.30;99.90;;;;;;5038565;28;20036;-89
2022/04/05 03:13:50;;;;;;;0.90;0.90;;;5.30;99.90;;;;;;5054642;28;20021;-89
2022/04/05 03:16:17;;;;;;;0.90;0.90;;;5.30;99.90;;;;;;5058291;28;21953;-88
2022/04/05 03:18:45;;;;;;;0.90;0.90;;;5.20;99.90;;;;;;5075971;28;20039;-89
2022/04/05 03:21:12;;;;;;;0.95;0.95;;;5.30;99.90;;;;;;5057723;28;20365;-90
2022/04/05 03:23:42;;;;;;;1.00;1.00;;;5.30;99.90;;;;;;5057896;28;20039;-94
2022/04/05 03:26:08;;;;;;;1.70;1.60;;;5.20;99.90;;;;;;5075657;28;20035;-91
2022/04/05 03:28:34;;;;;;;1.48;1.38;;;5.20;99.90;;;;;;5058017;28;20464;-89
2022/04/05 03:30:59;;;;;;;1.00;1.00;;;5.20;99.90;;;;;;5057641;28;20380;-93
2022/04/05 03:33:25;;;;;;;1.10;1.10;;;5.30;99.90;;;;;;5058144;28;20024;-90
2022/04/05 03:35:51;;;;;;;1.02;0.80;;;5.30;99.90;;;;;;5076092;28;20071;-91
2022/04/05 03:38:48;;;;;;;0.90;0.90;;;5.30;99.90;;;;;;5058059;28;20029;-90
2022/04/05 03:41:14;;;;;;;0.80;0.80;;;5.30;99.90;;;;;;5075397;28;20038;-90
2022/04/05 03:47:07;;;;;;;0.98;0.98;;;5.30;99.90;;;;;;5070116;28;20060;-89
2022/04/05 03:49:32;;;;;;;0.75;0.75;;;5.30;99.90;;;;;;5058287;28;20116;-91
2022/04/05 03:52:38;;;;;;;0.70;0.70;;;5.30;99.90;;;;;;5058532;28;20055;-92
2022/04/05 03:55:04;;;;;;;0.70;0.70;;;5.30;99.90;;;;;;5057646;28;20115;-93
2022/04/05 03:57:30;;;;;;;0.60;0.60;;;5.30;99.90;;;;;;5057876;28;20074;-92
2022/04/05 03:59:58;;;;;;;0.70;0.70;;;5.30;99.90;;;;;;5057878;28;20025;-92
2022/04/05 04:02:23;;;;;;;0.73;0.73;;;5.30;99.90;;;;;;5057683;28;20398;-93
2022/04/05 04:04:49;;;;;;;0.70;0.70;;;5.30;99.90;;;;;;5058201;28;20032;-93
2022/04/05 04:07:40;;;;;;;1.23;0.80;;;5.30;99.90;;;;;;5058293;28;20029;-92
2022/04/05 04:10:08;;;;;;;0.80;0.80;;;5.40;99.90;;;;;;5041966;28;20044;-93
2022/04/05 04:12:33;;;;;;;0.98;0.70;;;5.40;99.90;;;;;;5057813;28;20427;-93
2022/04/05 04:15:29;;;;;;;0.60;0.60;;;5.40;99.90;;;;;;5059420;28;20081;-95
2022/04/05 04:17:54;;;;;;;0.67;0.67;;;5.40;99.90;;;;;;5058611;28;20032;-93
2022/04/05 04:20:20;;;;;;;1.02;0.73;;;5.40;99.90;;;;;;5058109;28;20819;-94
2022/04/05 04:29:27;;;;;;;0.50;0.50;;;5.60;99.90;;;;;;5076445;28;20031;-93
2022/04/05 04:35:14;;;;;;;0.77;0.77;;;5.50;99.90;;;;;;5076289;28;20502;-92
2022/04/05 04:41:02;;;;;;;0.80;0.80;;;5.50;99.90;;;;;;5076174;28;20078;-94
2022/04/05 04:50:26;;;;;;;1.25;0.95;;;5.60;99.90;;;;;;5075963;28;20534;-94
2022/04/05 04:56:14;;;;;;;1.38;0.88;;;5.70;99.90;;;;;;5074740;28;20035;-93
2022/04/05 05:02:08;;;;;;;3.38;1.50;;;5.70;99.90;;;;;;5076863;28;20047;-92
2022/04/05 05:08:20;;;;;;;3.22;1.35;;;5.80;99.90;;;;;;5074782;28;20027;-94
2022/04/05 05:10:46;;;;;;;4.00;1.38;;;5.90;99.90;;;;;;5075915;28;20055;-93
2022/04/05 05:13:17;;;;;;;4.00;1.48;;;5.90;99.90;;;;;;5058946;28;20025;-93
2022/04/05 05:19:05;;;;;;;5.53;1.80;;;5.90;99.90;;;;;;5077130;28;20023;-93
2022/04/05 05:21:38;;;;;;;6.10;1.65;;;6.00;99.90;;;;;;5057823;28;20024;-94
2022/04/05 05:24:04;;;;;;;8.88;1.80;;;6.10;99.90;;;;;;5055837;28;20039;-92
2022/04/05 05:26:39;;;;;;;3.28;1.65;;;6.10;99.90;;;;;;5073938;28;20473;-95
2022/04/05 05:29:05;;;;;;;8.68;1.80;;;6.10;99.90;;;;;;5056645;28;20423;-94
2022/04/05 05:31:31;;;;;;;2.55;1.40;;;6.20;99.90;;;;;;5057309;28;20028;-95
2022/04/05 05:34:02;;;;;;;4.45;1.40;;;6.20;99.90;;;;;;5057463;28;20032;-91
2022/04/05 05:36:28;;;;;;;2.92;1.55;;;6.30;99.90;;;;;;5056759;28;20107;-94
2022/04/05 05:38:53;;;;;;;6.05;1.80;;;6.30;99.90;;;;;;5056919;28;20088;-95
2022/04/05 05:42:08;;;;;;;5.95;1.90;;;6.30;99.90;;;;;;5056779;28;20028;-92
2022/04/05 05:44:34;;;;;;;5.30;2.10;;;6.30;99.90;;;;;;5073870;28;20028;-93
2022/04/05 05:47:01;;;;;;;3.95;1.95;;;6.40;99.90;;;;;;5052996;28;20045;-93
2022/04/05 05:52:49;;;;;;;4.20;1.50;;;6.40;99.90;;;;;;5047275;28;20059;-94
2022/04/05 05:58:36;;;;;;;6.75;2.30;;;6.40;99.90;;;;;;5054093;28;20028;-92
2022/04/05 06:04:24;;;;;;;3.67;1.30;;;6.40;99.90;;;;;;5053761;28;20496;-94
2022/04/05 06:10:13;;;;;;;6.38;1.80;;;6.50;99.90;;;;;;5058383;28;20036;-94
2022/04/05 06:16:01;;;;;;;4.63;1.75;;;6.60;99.90;;;;;;5057814;28;20079;-91
2022/04/05 06:18:43;;;;;;;5.20;1.77;;;6.60;99.90;;;;;;5057385;28;20031;-91
2022/04/05 06:21:09;;;;;;;6.53;1.48;;;6.70;99.90;;;;;;5058579;28;20100;-94
2022/04/05 06:23:42;;;;;;;6.55;1.73;;;6.70;99.90;;;;;;5057900;28;20045;-92
2022/04/05 06:26:16;;;;;;;5.90;1.70;;;6.70;99.90;;;;;;5057240;28;20029;-94
2022/04/05 06:28:42;;;;;;;8.20;1.65;;;6.80;99.90;;;;;;5057081;28;20021;-95
2022/04/05 06:31:07;;;;;;;7.03;2.63;;;6.80;99.90;;;;;;5056940;28;20021;-95
2022/04/05 06:36:55;;;;;;;6.55;1.65;;;6.90;99.90;;;;;;5057794;28;20078;-92
2022/04/05 06:42:58;;;;;;;1.90;1.25;;;6.90;99.90;;;;;;5062452;28;20106;-92
2022/04/05 06:52:41;;;;;;;5.80;1.48;;;7.00;99.90;;;;;;5078827;28;20519;-92
2022/04/05 06:58:28;;;;;;;7.22;2.30;;;7.10;99.90;;;;;;5078197;28;20078;-94
2022/04/05 07:04:16;;;;;;;3.85;2.10;;;7.20;99.90;;;;;;5076830;28;20499;-93
2022/04/05 07:10:05;;;;;;;6.18;1.60;;;7.20;99.90;;;;;;5076865;28;20115;-92
2022/04/05 07:15:53;;;;;;;5.28;1.70;;;7.30;99.90;;;;;;5076955;28;20039;-93
2022/04/05 07:21:40;;;;;;;3.25;2.17;;;7.30;99.90;;;;;;5077192;28;20069;-92
2022/04/05 07:34:40;;;;;;;5.22;1.20;;;7.40;99.90;;;;;;5076288;28;20023;-93
2022/04/05 07:37:17;;;;;;;8.43;1.80;;;7.40;99.90;;;;;;5076478;28;20058;-91
2022/04/05 07:39:43;;;;;;;6.63;1.52;;;7.40;99.90;;;;;;5058468;28;20024;-92
2022/04/05 07:42:09;;;;;;;3.88;2.05;;;7.40;99.90;;;;;;5076027;28;20465;-94
2022/04/05 07:58:03;;;;;;;7.35;3.00;;;7.20;99.90;;;;;;5075129;28;20019;-90
2022/04/05 08:00:30;;;;;;;7.00;2.72;;;7.00;99.90;;;;;;5073980;28;20025;-89
2022/04/05 08:02:55;;;;;;;8.52;3.08;;;7.00;99.90;;;;;;5056155;28;20388;-89
2022/04/05 08:05:23;;;;;;;13.43;3.60;;;6.90;99.90;;;;;;5074160;28;20028;-90
2022/04/05 08:07:50;;;;;;;22.08;4.15;;;6.90;99.90;;;;;;5056202;28;20468;-90
2022/04/05 08:10:17;;;;;;;12.80;4.53;;;6.80;99.90;;;;;;5073927;28;20027;-90
2022/04/05 08:12:44;;;;;;;10.63;4.15;;;6.90;99.90;;;;;;5073627;28;20050;-90
2022/04/05 08:15:13;;;;;;;11.93;3.70;;;6.80;99.90;;;;;;5073641;28;20020;-89
2022/04/05 08:17:38;;;;;;;17.77;4.53;;;6.80;99.90;;;;;;5073402;28;20161;-89
2022/04/05 08:20:08;;;;;;;15.23;5.13;;;6.80;99.90;;;;;;5073529;28;20060;-89
2022/04/05 08:22:33;;;;;;;20.23;4.20;;;6.70;99.90;;;;;;5073682;28;20052;-88
2022/04/05 08:25:22;;;;;;;13.88;5.13;;;6.70;99.90;;;;;;5055715;28;20134;-89
2022/04/05 08:27:48;;;;;;;31.05;5.45;;;6.70;99.90;;;;;;5055781;28;20025;-90
2022/04/05 08:30:19;;;;;;;12.98;4.15;;;6.70;99.90;;;;;;5055099;28;20029;-91
2022/04/05 08:32:46;;;;;;;21.65;4.85;;;6.60;99.90;;;;;;5055641;28;20120;-91
2022/04/05 08:35:20;;;;;;;12.07;4.88;;;6.60;99.90;;;;;;5055749;28;20028;-90
2022/04/05 08:37:47;;;;;;;24.58;5.03;;;6.60;99.90;;;;;;5055714;28;20028;-90
2022/04/05 08:40:16;;;;;;;16.25;4.20;;;6.60;99.90;;;;;;5055642;28;20039;-90
2022/04/05 08:42:44;;;;;;;17.77;4.90;;;6.70;99.90;;;;;;5073396;28;20025;-90
2022/04/05 08:45:16;;;;;;;17.85;4.65;;;6.70;99.90;;;;;;5055415;28;20415;-90
2022/04/05 08:47:50;;;;;;;9.20;4.18;;;6.70;99.90;;;;;;5072915;28;20024;-90
2022/04/05 08:50:18;;;;;;;14.98;5.78;;;6.60;99.90;;;;;;5073250;28;20021;-89
2022/04/05 08:52:44;;;;;;;18.98;5.60;;;6.70;99.90;;;;;;5055354;28;20021;-89
2022/04/05 08:55:10;;;;;;;19.20;5.35;;;6.80;99.90;;;;;;5055399;28;20025;-88
2022/04/05 08:57:47;;;;;;;17.63;5.25;;;6.70;99.90;;;;;;5073113;28;20017;-88
2022/04/05 09:00:19;;;;;;;15.63;5.78;;;6.70;99.90;;;;;;5073036;28;20492;-89
2022/04/05 09:03:09;;;;;;;13.23;4.57;;;6.70;99.90;;;;;;5054877;28;20119;-89
2022/04/05 09:05:43;;;;;;;22.00;5.80;;;6.60;99.90;;;;;;5055052;28;20028;-89
2022/04/05 09:08:22;;;;;;;18.20;5.60;;;6.70;99.90;;;;;;5073309;28;20032;-90
2022/04/05 09:11:06;;;;;;;19.42;5.28;;;6.70;99.90;;;;;;5072970;28;20021;-88
2022/04/05 09:13:32;;;;;;;14.23;5.18;;;6.60;99.90;;;;;;5055036;28;20027;-91
2022/04/05 09:16:11;;;;;;;12.60;4.57;;;6.70;99.90;;;;;;5072299;28;20029;-90
2022/04/05 09:18:39;;;;;;;20.90;4.85;;;6.80;99.90;;;;;;5072770;28;20032;-90
2022/04/05 09:21:08;;;;;;;15.82;4.90;;;6.80;99.90;;;;;;5054420;28;20724;-91
2022/04/05 09:23:38;;;;;;;14.68;4.93;;;6.90;99.90;;;;;;5054587;28;20033;-90
2022/04/05 09:26:16;;;;;;;14.55;5.28;;;6.90;99.90;;;;;;5072597;28;20115;-90
2022/04/05 09:28:47;;;;;;;12.70;5.38;;;6.90;99.90;;;;;;5072671;28;20029;-90
2022/04/05 09:31:22;;;;;;;15.77;5.30;;;7.00;99.90;;;;;;5068062;28;20032;-88
2022/04/05 09:34:03;;;;;;;15.27;4.82;;;7.00;99.90;;;;;;5056081;28;20381;-90
2022/04/05 09:36:43;;;;;;;11.10;5.15;;;7.10;99.90;;;;;;5052658;28;20377;-90
2022/04/05 09:39:14;;;;;;;18.92;5.50;;;7.20;99.90;;;;;;5052296;28;20091;-91
2022/04/05 09:41:46;;;;;;;12.40;5.00;;;7.20;99.90;;;;;;5033862;28;20082;-91
2022/04/05 09:44:12;;;;;;;12.00;4.68;;;7.10;99.90;;;;;;5052416;28;20025;-90
2022/04/05 09:46:39;;;;;;;10.90;4.57;;;7.10;99.90;;;;;;5052025;28;20025;-90
2022/04/05 09:52:33;;;;;;;18.20;5.05;;;7.20;99.90;;;;;;5054343;28;20063;-96
2022/04/05 09:58:22;;;;;;;19.15;5.55;;;7.30;99.90;;;;;;5054575;28;20032;-96
2022/04/05 10:04:15;;;;;;;10.38;4.88;;;7.50;99.90;;;;;;5054192;28;20420;-95
2022/04/05 10:10:06;;;;;;;16.27;5.25;;;7.50;99.90;;;;;;5054190;28;20016;-96
2022/04/05 10:15:55;;;;;;;15.50;6.25;;;7.50;99.90;;;;;;5054152;28;20031;-96
2022/04/05 10:21:42;;;;;;;16.00;5.88;;;7.60;99.90;;;;;;5054111;28;20028;-93
2022/04/05 10:27:31;;;;;;;4.13;1.58;;;7.80;99.90;;;;;;5054397;28;20400;-93
2022/04/05 10:37:27;;;;;;;3.35;2.00;;;8.10;99.90;;;;;;5012115;28;20045;-94
2022/04/05 10:39:55;;;;;;;16.65;4.85;;;8.20;99.90;;;;;;4996121;28;20064;-95
2022/04/05 10:42:24;;;;;;;10.48;4.30;;;8.10;99.90;;;;;;4996131;28;20423;-93
2022/04/05 10:48:52;;;;;;;1.00;0.90;;;8.20;99.90;;;;;;5012339;28;20044;-94
2022/04/05 10:51:30;;;;;;;1.88;1.40;;;8.20;99.90;;;;;;4995909;28;20112;-94
2022/04/05 10:57:34;;;;;;;1.30;1.20;;;8.20;99.90;;;;;;4939792;28;20086;-94
2022/04/05 11:03:21;;;;;;;3.50;1.50;;;8.40;99.90;;;;;;4976465;28;20073;-95
2022/04/05 11:12:33;;;;;;;4.00;2.00;;;8.40;99.90;;;;;;4995803;28;20397;-95
2022/04/05 11:15:37;;;;;;;3.85;1.20;;;8.40;99.90;;;;;;4979393;28;20066;-94
2022/04/05 11:18:03;;;;;;;3.60;1.23;;;8.40;99.90;;;;;;4995350;28;20026;-93
2022/04/05 11:23:52;;;;;;;2.67;0.75;;;8.40;99.90;;;;;;4995641;28;20025;-96
2022/04/05 11:26:43;;;;;;;1.05;0.80;;;8.40;99.90;;;;;;4998503;28;20522;-94
2022/04/05 11:29:20;;;;;;;2.15;0.80;;;8.40;99.90;;;;;;4998341;28;20022;-95
2022/04/05 11:31:48;;;;;;;0.93;0.77;;;8.50;99.90;;;;;;4998534;28;20034;-94
2022/04/05 11:37:35;;;;;;;0.80;0.80;;;8.60;99.90;;;;;;5015483;28;20033;-95
2022/04/05 11:40:17;;;;;;;0.57;0.57;;;8.70;99.90;;;;;;4998386;28;20029;-93
2022/04/05 11:42:43;;;;;;;0.65;0.65;;;8.70;99.90;;;;;;5014608;28;20037;-93
2022/04/05 11:45:10;;;;;;;2.08;0.70;;;8.80;99.90;;;;;;5038248;28;20118;-93
2022/04/05 11:47:35;;;;;;;1.40;0.70;;;8.70;99.90;;;;;;5037184;28;20021;-93
2022/04/05 11:50:10;;;;;;;1.30;0.50;;;8.70;99.90;;;;;;5038052;28;20090;-92
2022/04/05 11:52:36;;;;;;;1.27;0.85;;;8.70;99.90;;;;;;5038017;28;20021;-91
2022/04/05 11:58:25;;;;;;;0.55;0.55;;;8.80;99.90;;;;;;5055789;28;20036;-92
2022/04/05 12:01:29;;;;;;;0.77;0.65;;;8.80;99.90;;;;;;5037628;28;20080;-93
2022/04/05 12:04:28;;;;;;;1.30;0.75;;;8.80;99.90;;;;;;5037233;28;20033;-91
2022/04/05 12:06:58;;;;;;;0.88;0.70;;;8.90;99.90;;;;;;5037704;28;20178;-90
2022/04/05 12:09:41;;;;;;;1.65;0.70;;;9.20;99.90;;;;;;5037804;28;20538;-92
2022/04/05 12:12:08;;;;;;;0.60;0.60;;;9.20;99.90;;;;;;5037589;28;20021;-93
2022/04/05 12:14:35;;;;;;;0.73;0.65;;;9.20;99.90;;;;;;5037554;28;20078;-92
2022/04/05 12:17:26;;;;;;;0.50;0.50;;;9.20;99.90;;;;;;5037136;28;20029;-92
2022/04/05 12:19:53;;;;;;;0.95;0.60;;;9.20;99.90;;;;;;5037036;28;20029;-92
2022/04/05 12:22:19;;;;;;;0.85;0.60;;;9.10;99.90;;;;;;5037287;28;20456;-90
2022/04/05 12:25:08;;;;;;;0.60;0.60;;;9.20;99.90;;;;;;5037230;28;20465;-91
2022/04/05 12:27:34;;;;;;;1.40;0.80;;;9.20;99.90;;;;;;5037343;28;20029;-92
2022/04/05 12:30:01;;;;;;;0.60;0.60;;;9.20;99.90;;;;;;5036778;28;20032;-91
2022/04/05 12:32:53;;;;;;;4.28;0.68;;;9.20;99.90;;;;;;5036701;28;20025;-91
2022/04/05 12:35:33;;;;;;;1.27;0.60;;;9.10;99.90;;;;;;5032960;28;20025;-90
2022/04/05 12:37:58;;;;;;;0.50;0.50;;;9.10;99.90;;;;;;5036653;28;20423;-91
2022/04/05 12:40:43;;;;;;;2.20;0.60;;;9.10;99.90;;;;;;5036357;28;20017;-90
2022/04/05 12:43:17;;;;;;;1.13;0.75;;;9.10;99.90;;;;;;5036408;28;20025;-90
2022/04/05 12:45:46;;;;;;;0.60;0.60;;;9.10;99.90;;;;;;5035957;28;20385;-90
2022/04/05 12:48:34;;;;;;;0.60;0.60;;;9.00;99.90;;;;;;5035916;28;20423;-91
2022/04/05 12:51:00;;;;;;;3.50;0.60;;;9.00;99.90;;;;;;5036478;28;20043;-91
2022/04/05 12:53:54;;;;;;;0.90;0.90;;;9.00;99.90;;;;;;5054198;28;20021;-92
2022/04/05 12:56:36;;;;;;;1.77;0.70;;;9.00;99.90;;;;;;5036197;28;20029;-90
2022/04/05 12:59:06;;;;;;;0.63;0.63;;;9.00;99.90;;;;;;5036329;28;20476;-91
2022/04/05 13:01:31;;;;;;;1.27;0.85;;;9.00;99.90;;;;;;5035996;28;20021;-92
2022/04/05 13:04:20;;;;;;;4.00;0.73;;;9.10;99.90;;;;;;5036161;28;20031;-92
2022/04/05 13:06:52;;;;;;;0.70;0.70;;;9.10;99.90;;;;;;5036676;28;20027;-93
2022/04/05 13:09:47;;;;;;;0.85;0.70;;;9.00;99.90;;;;;;5036337;28;20024;-92
2022/04/05 13:12:15;;;;;;;1.08;0.73;;;9.20;99.90;;;;;;5035943;28;20017;-92
2022/04/05 13:14:43;;;;;;;0.98;0.98;;;9.20;99.90;;;;;;5036373;28;20025;-92
2022/04/05 13:17:09;;;;;;;0.43;0.43;;;9.20;99.90;;;;;;5036048;28;20052;-94
2022/04/05 13:19:36;;;;;;;1.38;0.70;;;9.30;99.90;;;;;;5036585;28;20542;-93
2022/04/05 13:22:10;;;;;;;1.45;0.73;;;9.30;99.90;;;;;;5036553;28;20021;-92
2022/04/05 13:24:47;;;;;;;0.55;0.55;;;9.40;99.90;;;;;;5043710;28;20016;-92
2022/04/05 13:27:58;;;;;;;0.50;0.50;;;9.40;99.90;;;;;;5055878;28;20021;-92
2022/04/05 13:30:23;;;;;;;1.35;0.70;;;9.50;99.90;;;;;;5055517;28;20736;-91
2022/04/05 13:33:08;;;;;;;3.90;0.60;;;9.60;99.90;;;;;;5073628;28;20017;-94
2022/04/05 13:35:33;;;;;;;0.50;0.50;;;9.60;99.90;;;;;;5055770;28;20054;-92
2022/04/05 13:38:03;;;;;;;1.08;0.60;;;9.60;99.90;;;;;;5074004;28;20054;-93
2022/04/05 13:40:47;;;;;;;2.42;0.73;;;9.70;99.90;;;;;;5055591;28;20029;-92
2022/04/05 13:43:14;;;;;;;1.40;0.88;;;9.80;99.90;;;;;;5073509;28;20052;-91
2022/04/05 13:45:41;;;;;;;0.40;0.40;;;9.80;99.90;;;;;;5073568;28;20027;-91
2022/04/05 13:48:07;;;;;;;0.63;0.55;;;9.80;99.90;;;;;;5051861;28;20041;-91
2022/04/05 13:50:33;;;;;;;0.43;0.38;;;9.90;99.90;;;;;;5068925;28;20487;-92
2022/04/05 13:52:59;;;;;;;0.50;0.50;;;9.90;99.90;;;;;;5068176;28;20104;-90
2022/04/05 13:55:24;;;;;;;1.35;0.60;;;9.80;99.90;;;;;;5068311;28;20078;-91
2022/04/05 13:57:51;;;;;;;1.27;0.50;;;9.90;99.90;;;;;;5051598;28;20033;-90
2022/04/05 14:00:16;;;;;;;1.30;0.77;;;9.90;99.90;;;;;;5051765;28;20036;-90
2022/04/05 14:02:45;;;;;;;1.15;0.90;;;9.90;99.90;;;;;;5051521;28;20021;-89
2022/04/05 14:05:11;;;;;;;0.77;0.77;;;10.00;99.90;;;;;;5051441;28;20036;-90
2022/04/05 14:07:40;;;;;;;1.23;1.13;;;10.00;99.90;;;;;;5051761;28;20025;-92
2022/04/05 14:10:14;;;;;;;1.13;1.02;;;10.10;99.90;;;;;;5053287;28;20075;-90
2022/04/05 14:12:40;;;;;;;2.58;1.23;;;10.20;99.90;;;;;;5051731;28;20480;-92
2022/04/05 14:15:10;;;;;;;1.05;1.00;;;10.30;99.90;;;;;;5051054;28;20021;-90
2022/04/05 14:17:39;;;;;;;0.90;0.90;;;10.30;99.90;;;;;;5032903;28;20076;-92
2022/04/05 14:20:06;;;;;;;0.77;0.77;;;10.40;99.90;;;;;;5033671;28;20029;-92
2022/04/05 14:22:39;;;;;;;2.28;1.10;;;10.40;99.90;;;;;;5032381;28;20136;-92
2022/04/05 14:25:05;;;;;;;2.00;1.20;;;10.40;99.90;;;;;;5039635;28;20033;-91
2022/04/05 14:27:37;;;;;;;1.77;1.00;;;10.30;99.90;;;;;;5068827;28;20085;-92
2022/04/05 14:30:04;;;;;;;1.58;1.40;;;10.20;99.90;;;;;;5072098;28;20112;-92
2022/04/05 14:32:36;;;;;;;1.23;1.15;;;10.20;99.90;;;;;;5072516;28;20535;-95
2022/04/05 14:35:02;;;;;;;1.05;1.02;;;10.20;99.90;;;;;;5056965;28;20025;-91
2022/04/05 14:37:42;;;;;;;1.10;1.02;;;10.30;99.90;;;;;;5072494;28;20155;-93
2022/04/05 14:40:08;;;;;;;1.33;1.27;;;10.30;99.90;;;;;;5072077;28;20021;-91
2022/04/05 14:42:47;;;;;;;1.30;1.20;;;10.30;99.90;;;;;;5072365;28;20025;-91
2022/04/05 14:45:13;;;;;;;1.27;1.20;;;10.40;99.90;;;;;;5057077;28;20029;-93
2022/04/05 14:47:41;;;;;;;2.08;1.30;;;10.40;99.90;;;;;;5071972;28;20025;-92
2022/04/05 14:50:08;;;;;;;1.20;1.17;;;10.40;99.90;;;;;;5036513;28;20509;-92
2022/04/05 14:52:36;;;;;;;1.50;1.40;;;10.50;99.90;;;;;;5035253;28;20074;-92
2022/04/05 14:55:03;;;;;;;1.63;1.52;;;10.50;99.90;;;;;;5035185;28;20096;-92
2022/04/05 14:57:33;;;;;;;1.63;1.50;;;10.50;99.90;;;;;;5035397;28;20477;-91
2022/04/05 14:59:59;;;;;;;4.60;1.75;;;10.60;99.90;;;;;;5035156;28;20026;-92
2022/04/05 15:02:41;;;;;;;2.63;1.63;;;10.50;99.90;;;;;;5035364;28;20032;-93
2022/04/05 15:05:07;;;;;;;2.65;1.65;;;10.60;99.90;;;;;;5034773;28;20040;-91
2022/04/05 15:07:45;;;;;;;1.77;1.63;;;10.60;99.90;;;;;;5036257;28;20230;-94
2022/04/05 15:10:11;;;;;;;4.28;2.00;;;10.70;99.90;;;;;;5035210;28;20021;-92
2022/04/05 15:13:33;;;;;;;4.28;1.80;;;10.70;99.90;;;;;;5034579;28;20477;-91
2022/04/05 15:16:00;;;;;;;1.88;1.65;;;10.70;99.90;;;;;;5034282;28;20022;-92
2022/04/05 15:18:28;;;;;;;1.70;1.60;;;10.70;99.90;;;;;;5035718;28;20037;-92
2022/04/05 15:20:55;;;;;;;2.03;1.83;;;10.70;99.90;;;;;;5035448;28;20033;-91
2022/04/05 15:23:28;;;;;;;2.50;2.03;;;10.70;99.90;;;;;;5034928;28;20485;-91
2022/04/05 15:25:53;;;;;;;1.90;1.80;;;10.70;99.90;;;;;;5035473;28;20546;-92
2022/04/05 15:28:38;;;;;;;2.08;1.98;;;10.70;99.90;;;;;;5035755;28;20096;-93
2022/04/05 15:31:04;;;;;;;3.65;2.55;;;10.80;99.90;;;;;;5034554;28;20033;-91
2022/04/05 15:33:33;;;;;;;4.05;2.25;;;10.90;99.90;;;;;;5036153;28;20029;-92
2022/04/05 15:35:59;;;;;;;3.58;2.50;;;11.00;99.90;;;;;;5034856;28;20385;-90
2022/04/05 15:39:04;;;;;;;5.20;2.50;;;11.10;99.90;;;;;;5034934;28;20115;-91
2022/04/05 15:41:29;;;;;;;3.47;2.53;;;11.00;99.90;;;;;;5035498;28;20033;-92
2022/04/05 15:44:26;;;;;;;2.83;2.30;;;11.00;99.90;;;;;;5034240;28;20027;-93
2022/04/05 15:46:52;;;;;;;;;;;11.00;99.90;;;;;;5036062;28;20025;-93
2022/04/05 15:49:18;;;;;;;3.22;2.65;;;11.00;99.90;;;;;;5047356;28;19917;-92
2022/04/05 15:51:52;;;;;;;4.80;2.75;;;11.00;99.90;;;;;;5054886;28;20047;-92
2022/04/05 15:54:18;;;;;;;2.33;2.10;;;11.00;99.90;;;;;;5054393;28;20025;-93
2022/04/05 15:57:03;;;;;;;7.22;2.55;;;11.10;99.90;;;;;;5069808;28;20025;-91
2022/04/05 15:59:30;;;;;;;2.80;2.27;;;11.00;99.90;;;;;;5054217;28;20032;-91
2022/04/05 16:01:56;;;;;;;2.60;2.28;;;11.00;99.90;;;;;;5054016;28;20021;-92
2022/04/05 16:04:22;;;;;;;2.88;2.30;;;11.00;99.90;;;;;;5053231;28;20047;-93
2022/04/05 16:06:50;;;;;;;2.60;2.33;;;10.90;99.90;;;;;;5069711;28;20025;-92
2022/04/05 16:09:16;;;;;;;4.57;2.67;;;11.00;99.90;;;;;;5053177;28;20025;-92
2022/04/05 16:12:19;;;;;;;3.78;2.58;;;11.00;99.90;;;;;;5069832;28;20124;-90
2022/04/05 16:14:44;;;;;;;6.30;3.70;;;11.00;99.90;;;;;;5069409;28;20049;-91
2022/04/05 16:17:18;;;;;;;3.88;3.22;;;11.00;99.90;;;;;;5069246;28;20499;-93
2022/04/05 16:19:44;;;;;;;5.22;3.25;;;11.00;99.90;;;;;;5054044;28;20029;-92
2022/04/05 16:22:19;;;;;;;3.58;3.15;;;10.90;99.90;;;;;;5069022;28;20487;-93
2022/04/05 16:24:45;;;;;;;5.17;3.70;;;10.90;99.90;;;;;;5069340;28;20111;-91
2022/04/05 16:27:26;;;;;;;3.28;2.97;;;10.90;99.90;;;;;;5069243;28;20121;-91
2022/04/05 16:29:51;;;;;;;4.22;3.33;;;10.80;99.90;;;;;;5053532;28;20362;-91
2022/04/05 16:32:47;;;;;;;4.45;2.72;;;10.80;99.90;;;;;;5053842;28;20028;-91
2022/04/05 16:35:13;;;;;;;2.97;2.67;;;10.80;99.90;;;;;;5053905;28;20495;-93
2022/04/05 16:37:44;;;;;;;5.55;2.65;;;10.80;99.90;;;;;;5069316;28;20102;-91
2022/04/05 16:40:11;;;;;;;2.40;2.20;;;10.70;99.90;;;;;;5069126;28;20492;-90
2022/04/05 16:42:39;;;;;;;2.35;1.98;;;10.80;99.90;;;;;;5068945;28;20028;-91
2022/04/05 16:45:07;;;;;;;3.38;2.30;;;10.80;99.90;;;;;;5053385;28;20107;-90